METAR

ENBN 261750Z 20012KT 9999 -SHRA FEW006 BKN010 04/02 Q0994

ENMS 261720Z 16003KT 9999 VCSH FEW015 SCT028 BKN040 01/00 Q0993 RMK WIND 412FT VRB02KT

ENNM 261750Z 20009KT 140V260 9999 -SHRA FEW012 BKN020 03/01 Q0996

ENOL 261750Z 25019KT 9999 VCSH FEW020TCU SCT040 BKN060 04/02 Q0997 TEMPO 27020G30KT 4000 SHRA BKN012TCU

ENST 261750Z 17012KT 9999 -SHRA FEW006 SCT010 BKN030 03/01 Q0993 RMK WIND 300FT 17014KT

ENVA 261750Z 24011KT 9999 -DZ FEW014 SCT020 BKN032 03/01 Q0999 TEMPO 25015G25KT 4000 SHRA BKN012 RMK WIND 670FT 25015KT



TAF

TAF ENVA 261700Z 2618/2718 22012KT 9999 -SHRA FEW015TCU BKN030 TEMPO 2618/2622 4000 SHRA BKN012 SCT018CB BECMG 2621/2623 VRB05KT TEMPO 2708/2713 2000 SNRA VV009 BECMG 2711/2713 26010KT TEMPO 2713/2718 1500 SHSNRA VV008 BECMG 2715/2718 32018KT